sensor_id;sensor_type;location;lat;lon;timestamp;noise_LAeq;noise_LA_min;noise_LA_max;noise_LA01;noise_LA95
66399;Laerm;54877;51.504;3.894;2023-10-31T00:00:49;39.07;36.74;46.01;;
66399;Laerm;54877;51.504;3.894;2023-10-31T00:03:15;38.86;36.69;48.01;;
66399;Laerm;54877;51.504;3.894;2023-10-31T00:05:40;37.77;35.94;42.65;;
66399;Laerm;54877;51.504;3.894;2023-10-31T00:08:06;37.86;35.80;46.90;;
66399;Laerm;54877;51.504;3.894;2023-10-31T00:10:31;37.72;35.90;47.00;;
66399;Laerm;54877;51.504;3.894;2023-10-31T00:12:56;39.83;36.07;63.98;;
66399;Laerm;54877;51.504;3.894;2023-10-31T00:15:22;38.29;35.98;52.11;;
66399;Laerm;54877;51.504;3.894;2023-10-31T00:17:49;39.79;35.80;52.78;;
66399;Laerm;54877;51.504;3.894;2023-10-31T00:20:15;37.47;35.30;47.63;;
66399;Laerm;54877;51.504;3.894;2023-10-31T00:22:40;37.77;35.18;47.33;;
66399;Laerm;54877;51.504;3.894;2023-10-31T00:25:05;36.44;35.13;38.78;;
66399;Laerm;54877;51.504;3.894;2023-10-31T00:27:31;36.44;34.97;39.90;;
66399;Laerm;54877;51.504;3.894;2023-10-31T00:29:56;36.40;35.08;48.69;;
66399;Laerm;54877;51.504;3.894;2023-10-31T00:32:21;36.35;34.75;38.09;;
66399;Laerm;54877;51.504;3.894;2023-10-31T00:34:47;36.35;35.09;45.26;;
66399;Laerm;54877;51.504;3.894;2023-10-31T00:37:12;36.36;35.09;37.71;;
66399;Laerm;54877;51.504;3.894;2023-10-31T00:39:38;36.37;34.98;40.34;;
66399;Laerm;54877;51.504;3.894;2023-10-31T00:42:03;36.36;34.90;39.05;;
66399;Laerm;54877;51.504;3.894;2023-10-31T00:44:28;36.37;34.95;39.73;;
66399;Laerm;54877;51.504;3.894;2023-10-31T00:46:54;36.35;34.97;38.30;;
66399;Laerm;54877;51.504;3.894;2023-10-31T00:49:19;36.36;34.73;37.73;;
66399;Laerm;54877;51.504;3.894;2023-10-31T00:51:44;36.35;35.00;37.94;;
66399;Laerm;54877;51.504;3.894;2023-10-31T00:54:10;36.38;35.06;37.68;;
66399;Laerm;54877;51.504;3.894;2023-10-31T00:56:35;36.37;34.88;37.55;;
66399;Laerm;54877;51.504;3.894;2023-10-31T00:59:00;36.49;34.80;48.50;;
66399;Laerm;54877;51.504;3.894;2023-10-31T01:01:26;37.18;34.98;54.14;;
66399;Laerm;54877;51.504;3.894;2023-10-31T01:03:51;38.31;35.53;44.60;;
66399;Laerm;54877;51.504;3.894;2023-10-31T01:06:16;39.84;35.12;66.93;;
66399;Laerm;54877;51.504;3.894;2023-10-31T01:08:41;38.37;36.14;43.71;;
66399;Laerm;54877;51.504;3.894;2023-10-31T01:11:07;38.29;36.38;42.93;;
66399;Laerm;54877;51.504;3.894;2023-10-31T01:13:32;37.94;36.00;42.16;;
66399;Laerm;54877;51.504;3.894;2023-10-31T01:15:57;38.29;36.25;45.28;;
66399;Laerm;54877;51.504;3.894;2023-10-31T01:18:23;38.01;36.14;48.24;;
66399;Laerm;54877;51.504;3.894;2023-10-31T01:20:48;40.20;35.39;68.88;;
66399;Laerm;54877;51.504;3.894;2023-10-31T01:23:14;36.94;35.28;57.32;;
66399;Laerm;54877;51.504;3.894;2023-10-31T01:25:39;36.40;35.15;38.70;;
66399;Laerm;54877;51.504;3.894;2023-10-31T01:28:04;36.96;35.09;46.99;;
66399;Laerm;54877;51.504;3.894;2023-10-31T01:30:29;36.41;35.06;47.95;;
66399;Laerm;54877;51.504;3.894;2023-10-31T01:32:55;37.97;35.30;49.94;;
66399;Laerm;54877;51.504;3.894;2023-10-31T01:35:20;37.96;36.12;45.53;;
66399;Laerm;54877;51.504;3.894;2023-10-31T01:37:45;37.89;35.98;45.39;;
66399;Laerm;54877;51.504;3.894;2023-10-31T01:40:14;40.88;35.28;73.49;;
66399;Laerm;54877;51.504;3.894;2023-10-31T01:42:39;38.35;35.19;64.84;;
66399;Laerm;54877;51.504;3.894;2023-10-31T01:45:05;38.36;35.10;65.76;;
66399;Laerm;54877;51.504;3.894;2023-10-31T01:47:32;36.39;34.89;37.61;;
66399;Laerm;54877;51.504;3.894;2023-10-31T01:49:57;36.38;34.98;37.66;;
66399;Laerm;54877;51.504;3.894;2023-10-31T01:52:23;36.60;35.02;38.72;;
66399;Laerm;54877;51.504;3.894;2023-10-31T01:54:49;36.56;34.91;39.39;;
66399;Laerm;54877;51.504;3.894;2023-10-31T01:57:14;36.55;35.01;58.37;;
66399;Laerm;54877;51.504;3.894;2023-10-31T01:59:40;36.29;34.99;37.62;;
66399;Laerm;54877;51.504;3.894;2023-10-31T02:02:06;37.35;34.94;58.01;;
66399;Laerm;54877;51.504;3.894;2023-10-31T02:04:31;36.31;34.87;37.50;;
66399;Laerm;54877;51.504;3.894;2023-10-31T02:06:57;36.38;34.73;50.53;;
66399;Laerm;54877;51.504;3.894;2023-10-31T02:09:22;39.23;34.96;65.95;;
66399;Laerm;54877;51.504;3.894;2023-10-31T02:11:50;38.03;35.13;68.84;;
66399;Laerm;54877;51.504;3.894;2023-10-31T02:14:15;36.28;34.77;38.22;;
66399;Laerm;54877;51.504;3.894;2023-10-31T02:16:40;37.68;35.01;62.15;;
66399;Laerm;54877;51.504;3.894;2023-10-31T02:19:06;38.85;35.96;57.28;;
66399;Laerm;54877;51.504;3.894;2023-10-31T02:21:32;37.84;35.84;46.34;;
66399;Laerm;54877;51.504;3.894;2023-10-31T02:23:59;37.55;35.42;44.49;;
66399;Laerm;54877;51.504;3.894;2023-10-31T02:26:32;37.41;35.41;43.38;;
66399;Laerm;54877;51.504;3.894;2023-10-31T02:28:58;37.04;35.48;41.64;;
66399;Laerm;54877;51.504;3.894;2023-10-31T02:31:24;38.27;35.48;45.03;;
66399;Laerm;54877;51.504;3.894;2023-10-31T02:33:50;37.49;35.77;51.35;;
66399;Laerm;54877;51.504;3.894;2023-10-31T02:36:16;37.38;35.81;41.30;;
66399;Laerm;54877;51.504;3.894;2023-10-31T02:38:41;37.23;35.44;51.87;;
66399;Laerm;54877;51.504;3.894;2023-10-31T02:41:06;37.14;35.45;53.59;;
66399;Laerm;54877;51.504;3.894;2023-10-31T02:43:32;38.51;35.57;54.10;;
66399;Laerm;54877;51.504;3.894;2023-10-31T02:45:57;37.64;35.66;41.96;;
66399;Laerm;54877;51.504;3.894;2023-10-31T02:48:23;37.84;35.56;43.41;;
66399;Laerm;54877;51.504;3.894;2023-10-31T02:50:50;38.74;36.04;61.21;;
66399;Laerm;54877;51.504;3.894;2023-10-31T02:53:15;39.57;36.41;43.84;;
66399;Laerm;54877;51.504;3.894;2023-10-31T02:55:41;39.14;36.74;52.27;;
66399;Laerm;54877;51.504;3.894;2023-10-31T02:58:06;40.04;37.00;43.42;;
66399;Laerm;54877;51.504;3.894;2023-10-31T03:00:31;39.19;36.54;45.16;;
66399;Laerm;54877;51.504;3.894;2023-10-31T03:02:57;37.28;35.53;41.12;;
66399;Laerm;54877;51.504;3.894;2023-10-31T03:05:22;41.67;37.18;50.02;;
66399;Laerm;54877;51.504;3.894;2023-10-31T03:07:47;46.27;41.14;51.10;;
66399;Laerm;54877;51.504;3.894;2023-10-31T03:10:13;43.99;41.28;47.14;;
66399;Laerm;54877;51.504;3.894;2023-10-31T03:12:38;43.55;40.37;46.88;;
66399;Laerm;54877;51.504;3.894;2023-10-31T03:15:04;42.84;39.59;46.01;;
66399;Laerm;54877;51.504;3.894;2023-10-31T03:17:29;40.58;37.90;43.96;;
66399;Laerm;54877;51.504;3.894;2023-10-31T03:19:55;44.68;39.62;51.14;;
66399;Laerm;54877;51.504;3.894;2023-10-31T03:22:20;49.48;41.03;57.14;;
66399;Laerm;54877;51.504;3.894;2023-10-31T03:24:46;45.41;39.53;61.38;;
66399;Laerm;54877;51.504;3.894;2023-10-31T03:27:11;41.98;38.61;59.00;;
66399;Laerm;54877;51.504;3.894;2023-10-31T03:29:36;41.18;37.48;60.18;;
66399;Laerm;54877;51.504;3.894;2023-10-31T03:32:02;43.32;38.82;51.20;;
66399;Laerm;54877;51.504;3.894;2023-10-31T03:34:27;43.53;39.08;61.19;;
66399;Laerm;54877;51.504;3.894;2023-10-31T03:36:52;47.68;42.43;64.83;;
66399;Laerm;54877;51.504;3.894;2023-10-31T03:39:18;50.38;41.97;56.05;;
66399;Laerm;54877;51.504;3.894;2023-10-31T03:41:43;40.33;37.46;47.39;;
66399;Laerm;54877;51.504;3.894;2023-10-31T03:44:09;43.65;37.49;72.33;;
66399;Laerm;54877;51.504;3.894;2023-10-31T03:46:34;40.46;37.83;45.27;;
66399;Laerm;54877;51.504;3.894;2023-10-31T03:49:00;39.21;37.42;45.12;;
66399;Laerm;54877;51.504;3.894;2023-10-31T03:51:25;38.66;36.62;56.74;;
66399;Laerm;54877;51.504;3.894;2023-10-31T03:53:50;37.90;36.12;52.09;;
66399;Laerm;54877;51.504;3.894;2023-10-31T03:56:16;38.87;36.55;44.20;;
66399;Laerm;54877;51.504;3.894;2023-10-31T03:58:42;39.06;37.42;41.94;;
66399;Laerm;54877;51.504;3.894;2023-10-31T04:01:08;41.37;36.56;64.67;;
66399;Laerm;54877;51.504;3.894;2023-10-31T04:03:33;38.93;36.05;58.46;;
66399;Laerm;54877;51.504;3.894;2023-10-31T04:05:58;43.73;36.06;65.16;;
66399;Laerm;54877;51.504;3.894;2023-10-31T04:08:24;38.53;36.11;52.76;;
66399;Laerm;54877;51.504;3.894;2023-10-31T04:10:49;37.31;35.52;41.20;;
66399;Laerm;54877;51.504;3.894;2023-10-31T04:13:14;37.73;35.40;41.30;;
66399;Laerm;54877;51.504;3.894;2023-10-31T04:15:39;38.61;35.38;52.67;;
66399;Laerm;54877;51.504;3.894;2023-10-31T04:18:05;43.72;38.29;51.35;;
66399;Laerm;54877;51.504;3.894;2023-10-31T04:20:30;44.93;36.21;60.83;;
66399;Laerm;54877;51.504;3.894;2023-10-31T04:22:55;39.37;36.38;43.67;;
66399;Laerm;54877;51.504;3.894;2023-10-31T04:25:21;39.95;37.49;54.43;;
66399;Laerm;54877;51.504;3.894;2023-10-31T04:27:46;40.36;37.40;45.27;;
66399;Laerm;54877;51.504;3.894;2023-10-31T04:30:11;40.54;37.82;48.94;;
66399;Laerm;54877;51.504;3.894;2023-10-31T04:32:37;38.01;35.77;52.49;;
66399;Laerm;54877;51.504;3.894;2023-10-31T04:35:02;38.47;36.12;46.70;;
66399;Laerm;54877;51.504;3.894;2023-10-31T04:37:27;37.40;35.32;52.85;;
66399;Laerm;54877;51.504;3.894;2023-10-31T04:39:53;37.37;35.63;53.37;;
66399;Laerm;54877;51.504;3.894;2023-10-31T04:42:18;37.23;35.55;51.48;;
66399;Laerm;54877;51.504;3.894;2023-10-31T04:44:45;36.93;35.39;42.39;;
66399;Laerm;54877;51.504;3.894;2023-10-31T04:47:11;37.24;34.96;57.44;;
66399;Laerm;54877;51.504;3.894;2023-10-31T04:49:36;42.77;35.49;60.98;;
66399;Laerm;54877;51.504;3.894;2023-10-31T04:52:01;37.24;35.49;55.13;;
66399;Laerm;54877;51.504;3.894;2023-10-31T04:54:27;36.80;35.40;45.82;;
66399;Laerm;54877;51.504;3.894;2023-10-31T04:56:52;37.47;35.39;49.66;;
66399;Laerm;54877;51.504;3.894;2023-10-31T04:59:17;37.44;35.13;56.58;;
66399;Laerm;54877;51.504;3.894;2023-10-31T05:01:48;36.75;35.17;53.27;;
66399;Laerm;54877;51.504;3.894;2023-10-31T05:04:14;36.47;35.09;39.41;;
66399;Laerm;54877;51.504;3.894;2023-10-31T05:06:39;36.58;35.01;45.47;;
66399;Laerm;54877;51.504;3.894;2023-10-31T05:09:05;36.58;35.20;43.68;;
66399;Laerm;54877;51.504;3.894;2023-10-31T05:11:30;36.52;35.19;39.93;;
66399;Laerm;54877;51.504;3.894;2023-10-31T05:13:56;36.40;35.20;38.22;;
66399;Laerm;54877;51.504;3.894;2023-10-31T05:16:21;36.41;34.99;46.15;;
66399;Laerm;54877;51.504;3.894;2023-10-31T05:18:46;36.38;34.97;39.94;;
66399;Laerm;54877;51.504;3.894;2023-10-31T05:21:11;36.39;35.09;38.65;;
66399;Laerm;54877;51.504;3.894;2023-10-31T05:23:37;37.76;34.66;65.05;;
66399;Laerm;54877;51.504;3.894;2023-10-31T05:26:05;36.91;35.17;41.78;;
66399;Laerm;54877;51.504;3.894;2023-10-31T05:28:30;37.55;35.09;56.87;;
66399;Laerm;54877;51.504;3.894;2023-10-31T05:30:56;40.50;35.22;57.04;;
66399;Laerm;54877;51.504;3.894;2023-10-31T05:33:21;44.99;35.10;64.40;;
66399;Laerm;54877;51.504;3.894;2023-10-31T05:35:48;37.51;35.31;64.62;;
66399;Laerm;54877;51.504;3.894;2023-10-31T05:38:13;37.33;35.04;62.32;;
66399;Laerm;54877;51.504;3.894;2023-10-31T05:40:39;42.80;35.26;60.42;;
66399;Laerm;54877;51.504;3.894;2023-10-31T05:43:04;37.42;35.23;64.35;;
66399;Laerm;54877;51.504;3.894;2023-10-31T05:45:30;40.60;35.22;73.41;;
66399;Laerm;54877;51.504;3.894;2023-10-31T05:47:55;38.27;35.31;66.19;;
66399;Laerm;54877;51.504;3.894;2023-10-31T05:50:21;36.90;35.56;45.36;;
66399;Laerm;54877;51.504;3.894;2023-10-31T05:52:46;37.24;35.15;57.38;;
66399;Laerm;54877;51.504;3.894;2023-10-31T05:55:12;37.34;35.23;58.20;;
66399;Laerm;54877;51.504;3.894;2023-10-31T05:57:37;38.89;35.23;52.48;;
66399;Laerm;54877;51.504;3.894;2023-10-31T06:00:03;36.80;35.25;39.02;;
66399;Laerm;54877;51.504;3.894;2023-10-31T06:02:29;36.96;35.46;40.41;;
66399;Laerm;54877;51.504;3.894;2023-10-31T06:04:55;38.72;35.33;65.76;;
66399;Laerm;54877;51.504;3.894;2023-10-31T06:07:20;45.69;35.67;62.38;;
66399;Laerm;54877;51.504;3.894;2023-10-31T06:09:45;39.08;35.54;69.48;;
66399;Laerm;54877;51.504;3.894;2023-10-31T06:12:11;41.95;35.64;59.76;;
66399;Laerm;54877;51.504;3.894;2023-10-31T06:14:37;43.79;35.63;61.77;;
66399;Laerm;54877;51.504;3.894;2023-10-31T06:17:02;40.08;35.57;66.65;;
66399;Laerm;54877;51.504;3.894;2023-10-31T06:19:27;37.32;35.61;44.78;;
66399;Laerm;54877;51.504;3.894;2023-10-31T06:21:53;39.20;35.57;57.43;;
66399;Laerm;54877;51.504;3.894;2023-10-31T06:24:18;37.20;35.26;57.99;;
66399;Laerm;54877;51.504;3.894;2023-10-31T06:26:43;41.89;35.45;62.83;;
66399;Laerm;54877;51.504;3.894;2023-10-31T06:29:09;42.17;36.06;61.88;;
66399;Laerm;54877;51.504;3.894;2023-10-31T06:31:34;45.91;35.63;74.43;;
66399;Laerm;54877;51.504;3.894;2023-10-31T06:33:59;45.50;35.61;66.15;;
66399;Laerm;54877;51.504;3.894;2023-10-31T06:36:25;41.81;35.89;62.07;;
66399;Laerm;54877;51.504;3.894;2023-10-31T06:38:50;47.09;35.98;67.06;;
66399;Laerm;54877;51.504;3.894;2023-10-31T06:41:15;38.67;36.35;50.67;;
66399;Laerm;54877;51.504;3.894;2023-10-31T06:43:41;46.58;36.57;72.51;;
66399;Laerm;54877;51.504;3.894;2023-10-31T06:46:06;41.45;35.89;56.94;;
66399;Laerm;54877;51.504;3.894;2023-10-31T06:48:32;40.81;35.79;56.88;;
66399;Laerm;54877;51.504;3.894;2023-10-31T06:50:57;40.93;35.84;57.31;;
66399;Laerm;54877;51.504;3.894;2023-10-31T06:53:22;44.68;36.29;60.49;;
66399;Laerm;54877;51.504;3.894;2023-10-31T06:55:48;43.12;35.96;59.45;;
66399;Laerm;54877;51.504;3.894;2023-10-31T06:58:13;37.25;35.53;50.44;;
66399;Laerm;54877;51.504;3.894;2023-10-31T07:00:39;37.20;35.38;45.91;;
66399;Laerm;54877;51.504;3.894;2023-10-31T07:03:04;42.14;35.53;59.39;;
66399;Laerm;54877;51.504;3.894;2023-10-31T07:05:36;43.69;35.30;59.44;;
66399;Laerm;54877;51.504;3.894;2023-10-31T07:08:02;40.74;35.51;57.01;;
66399;Laerm;54877;51.504;3.894;2023-10-31T07:10:28;42.20;35.40;60.61;;
66399;Laerm;54877;51.504;3.894;2023-10-31T07:12:53;38.17;35.67;51.55;;
66399;Laerm;54877;51.504;3.894;2023-10-31T07:15:19;39.50;35.57;51.67;;
66399;Laerm;54877;51.504;3.894;2023-10-31T07:17:44;39.48;35.72;57.34;;
66399;Laerm;54877;51.504;3.894;2023-10-31T07:20:10;39.92;35.60;55.81;;
66399;Laerm;54877;51.504;3.894;2023-10-31T07:22:35;44.41;35.65;60.95;;
66399;Laerm;54877;51.504;3.894;2023-10-31T07:25:01;47.70;35.71;65.36;;
66399;Laerm;54877;51.504;3.894;2023-10-31T07:27:28;43.74;35.53;59.34;;
66399;Laerm;54877;51.504;3.894;2023-10-31T07:29:54;41.44;35.37;56.80;;
66399;Laerm;54877;51.504;3.894;2023-10-31T07:32:19;38.63;35.56;55.42;;
66399;Laerm;54877;51.504;3.894;2023-10-31T07:34:45;42.76;35.86;58.34;;
66399;Laerm;54877;51.504;3.894;2023-10-31T07:37:10;37.32;35.67;46.30;;
66399;Laerm;54877;51.504;3.894;2023-10-31T07:39:35;38.72;35.34;54.67;;
66399;Laerm;54877;51.504;3.894;2023-10-31T07:42:01;37.57;35.48;48.20;;
66399;Laerm;54877;51.504;3.894;2023-10-31T07:44:26;41.07;35.29;60.66;;
66399;Laerm;54877;51.504;3.894;2023-10-31T07:46:51;37.91;35.60;59.34;;
66399;Laerm;54877;51.504;3.894;2023-10-31T07:49:17;36.73;35.00;44.43;;
66399;Laerm;54877;51.504;3.894;2023-10-31T07:51:42;37.12;35.02;49.23;;
66399;Laerm;54877;51.504;3.894;2023-10-31T07:54:07;43.91;35.25;60.94;;
66399;Laerm;54877;51.504;3.894;2023-10-31T07:56:35;42.32;35.14;59.59;;
66399;Laerm;54877;51.504;3.894;2023-10-31T07:59:01;37.48;35.17;49.31;;
66399;Laerm;54877;51.504;3.894;2023-10-31T08:01:27;38.17;35.19;61.15;;
66399;Laerm;54877;51.504;3.894;2023-10-31T08:03:53;40.91;35.18;57.18;;
66399;Laerm;54877;51.504;3.894;2023-10-31T08:06:19;43.03;35.24;59.14;;
66399;Laerm;54877;51.504;3.894;2023-10-31T08:08:44;42.99;35.13;61.87;;
66399;Laerm;54877;51.504;3.894;2023-10-31T08:11:10;41.75;35.11;57.91;;
66399;Laerm;54877;51.504;3.894;2023-10-31T08:13:40;36.79;34.81;51.46;;
66399;Laerm;54877;51.504;3.894;2023-10-31T08:16:06;37.12;35.29;47.23;;
66399;Laerm;54877;51.504;3.894;2023-10-31T08:18:32;39.51;35.40;56.04;;
66399;Laerm;54877;51.504;3.894;2023-10-31T08:20:57;41.26;35.33;55.56;;
66399;Laerm;54877;51.504;3.894;2023-10-31T08:23:22;39.69;34.90;54.74;;
66399;Laerm;54877;51.504;3.894;2023-10-31T08:25:48;37.47;35.23;47.56;;
66399;Laerm;54877;51.504;3.894;2023-10-31T08:28:14;36.60;34.88;44.27;;
66399;Laerm;54877;51.504;3.894;2023-10-31T08:30:39;40.24;35.14;54.88;;
66399;Laerm;54877;51.504;3.894;2023-10-31T08:33:05;36.67;35.08;43.41;;
66399;Laerm;54877;51.504;3.894;2023-10-31T08:35:31;40.26;35.21;56.17;;
66399;Laerm;54877;51.504;3.894;2023-10-31T08:37:56;38.42;35.06;60.58;;
66399;Laerm;54877;51.504;3.894;2023-10-31T08:40:22;36.90;35.23;49.98;;
66399;Laerm;54877;51.504;3.894;2023-10-31T08:42:48;37.19;35.25;52.74;;
66399;Laerm;54877;51.504;3.894;2023-10-31T08:45:13;41.48;34.78;61.37;;
66399;Laerm;54877;51.504;3.894;2023-10-31T08:47:38;39.98;35.30;55.32;;
66399;Laerm;54877;51.504;3.894;2023-10-31T08:50:04;43.22;35.27;60.18;;
66399;Laerm;54877;51.504;3.894;2023-10-31T08:52:30;40.69;35.13;59.53;;
66399;Laerm;54877;51.504;3.894;2023-10-31T08:54:55;37.01;35.26;40.35;;
66399;Laerm;54877;51.504;3.894;2023-10-31T08:57:22;42.31;35.17;58.70;;
66399;Laerm;54877;51.504;3.894;2023-10-31T08:59:47;37.50;34.97;50.60;;
66399;Laerm;54877;51.504;3.894;2023-10-31T09:02:12;37.48;35.27;61.10;;
66399;Laerm;54877;51.504;3.894;2023-10-31T09:04:38;37.66;35.32;56.56;;
66399;Laerm;54877;51.504;3.894;2023-10-31T09:07:03;54.53;36.22;70.84;;
66399;Laerm;54877;51.504;3.894;2023-10-31T09:09:29;42.18;36.86;55.91;;
66399;Laerm;54877;51.504;3.894;2023-10-31T09:11:54;37.76;35.13;47.06;;
66399;Laerm;54877;51.504;3.894;2023-10-31T09:14:20;37.96;35.28;53.61;;
66399;Laerm;54877;51.504;3.894;2023-10-31T09:16:45;46.41;35.37;69.08;;
66399;Laerm;54877;51.504;3.894;2023-10-31T09:19:10;39.21;35.26;62.26;;
66399;Laerm;54877;51.504;3.894;2023-10-31T09:21:36;37.85;35.40;55.01;;
66399;Laerm;54877;51.504;3.894;2023-10-31T09:24:02;37.93;35.17;53.57;;
66399;Laerm;54877;51.504;3.894;2023-10-31T09:26:27;41.01;34.95;58.34;;
66399;Laerm;54877;51.504;3.894;2023-10-31T09:28:53;37.39;35.26;51.00;;
66399;Laerm;54877;51.504;3.894;2023-10-31T09:31:19;38.08;34.80;61.18;;
66399;Laerm;54877;51.504;3.894;2023-10-31T09:33:45;44.47;35.38;62.88;;
66399;Laerm;54877;51.504;3.894;2023-10-31T09:36:11;37.36;35.12;51.31;;
66399;Laerm;54877;51.504;3.894;2023-10-31T09:38:36;38.61;35.18;60.99;;
66399;Laerm;54877;51.504;3.894;2023-10-31T09:41:02;39.86;35.18;56.29;;
66399;Laerm;54877;51.504;3.894;2023-10-31T09:43:28;36.80;35.00;44.03;;
66399;Laerm;54877;51.504;3.894;2023-10-31T09:45:53;42.29;35.18;59.36;;
66399;Laerm;54877;51.504;3.894;2023-10-31T09:48:19;36.95;35.17;53.40;;
66399;Laerm;54877;51.504;3.894;2023-10-31T09:50:45;38.50;35.10;66.31;;
66399;Laerm;54877;51.504;3.894;2023-10-31T09:53:11;36.97;35.28;44.70;;
66399;Laerm;54877;51.504;3.894;2023-10-31T09:55:39;36.79;35.32;42.96;;
66399;Laerm;54877;51.504;3.894;2023-10-31T09:58:04;42.98;35.57;60.00;;
66399;Laerm;54877;51.504;3.894;2023-10-31T10:00:30;38.35;35.49;64.25;;
66399;Laerm;54877;51.504;3.894;2023-10-31T10:02:55;37.01;35.45;41.25;;
66399;Laerm;54877;51.504;3.894;2023-10-31T10:05:20;37.09;35.34;51.14;;
66399;Laerm;54877;51.504;3.894;2023-10-31T10:07:48;36.92;35.30;46.78;;
66399;Laerm;54877;51.504;3.894;2023-10-31T10:10:13;37.59;35.37;62.01;;
66399;Laerm;54877;51.504;3.894;2023-10-31T10:12:44;40.69;35.02;58.57;;
66399;Laerm;54877;51.504;3.894;2023-10-31T10:15:10;37.87;35.39;52.71;;
66399;Laerm;54877;51.504;3.894;2023-10-31T10:17:37;41.02;35.23;57.53;;
66399;Laerm;54877;51.504;3.894;2023-10-31T10:22:36;37.35;35.37;54.14;;
66399;Laerm;54877;51.504;3.894;2023-10-31T10:25:01;37.16;35.30;41.43;;
66399;Laerm;54877;51.504;3.894;2023-10-31T10:27:29;40.95;35.39;65.51;;
66399;Laerm;54877;51.504;3.894;2023-10-31T10:29:54;40.81;35.44;62.49;;
66399;Laerm;54877;51.504;3.894;2023-10-31T10:32:19;39.55;36.00;61.44;;
66399;Laerm;54877;51.504;3.894;2023-10-31T10:34:45;43.47;35.56;62.30;;
66399;Laerm;54877;51.504;3.894;2023-10-31T10:37:11;40.00;35.97;55.73;;
66399;Laerm;54877;51.504;3.894;2023-10-31T10:39:39;42.26;36.33;59.24;;
66399;Laerm;54877;51.504;3.894;2023-10-31T10:42:09;40.29;35.97;53.01;;
66399;Laerm;54877;51.504;3.894;2023-10-31T10:44:36;39.03;35.92;49.14;;
66399;Laerm;54877;51.504;3.894;2023-10-31T10:47:05;38.03;36.28;44.53;;
66399;Laerm;54877;51.504;3.894;2023-10-31T10:49:36;41.75;35.60;58.01;;
66399;Laerm;54877;51.504;3.894;2023-10-31T10:54:53;45.52;35.94;63.82;;
66399;Laerm;54877;51.504;3.894;2023-10-31T10:57:44;38.55;35.01;57.14;;
66399;Laerm;54877;51.504;3.894;2023-10-31T11:00:12;37.51;35.45;47.75;;
66399;Laerm;54877;51.504;3.894;2023-10-31T11:02:40;38.10;35.89;53.43;;
66399;Laerm;54877;51.504;3.894;2023-10-31T11:05:09;37.16;35.37;49.56;;
66399;Laerm;54877;51.504;3.894;2023-10-31T11:07:40;44.41;35.60;58.05;;
66399;Laerm;54877;51.504;3.894;2023-10-31T11:10:06;52.53;42.87;75.62;;
66399;Laerm;54877;51.504;3.894;2023-10-31T11:12:33;52.97;35.57;83.14;;
66399;Laerm;54877;51.504;3.894;2023-10-31T11:14:59;38.02;35.45;52.63;;
66399;Laerm;54877;51.504;3.894;2023-10-31T11:17:31;37.15;35.55;46.90;;
66399;Laerm;54877;51.504;3.894;2023-10-31T11:19:57;46.36;35.55;66.23;;
66399;Laerm;54877;51.504;3.894;2023-10-31T11:22:23;40.52;35.32;51.16;;
66399;Laerm;54877;51.504;3.894;2023-10-31T11:24:49;43.14;35.35;62.01;;
66399;Laerm;54877;51.504;3.894;2023-10-31T11:27:17;42.23;35.39;59.85;;
66399;Laerm;54877;51.504;3.894;2023-10-31T11:29:42;43.34;35.14;61.00;;
66399;Laerm;54877;51.504;3.894;2023-10-31T11:32:09;37.04;35.24;48.60;;
66399;Laerm;54877;51.504;3.894;2023-10-31T11:34:37;46.58;35.27;67.90;;
66399;Laerm;54877;51.504;3.894;2023-10-31T11:37:32;37.52;35.35;50.50;;
66399;Laerm;54877;51.504;3.894;2023-10-31T11:40:14;37.21;35.33;48.12;;
66399;Laerm;54877;51.504;3.894;2023-10-31T11:42:47;38.22;35.47;58.15;;
66399;Laerm;54877;51.504;3.894;2023-10-31T11:45:13;46.00;35.39;65.49;;
66399;Laerm;54877;51.504;3.894;2023-10-31T11:47:48;45.82;35.28;60.81;;
66399;Laerm;54877;51.504;3.894;2023-10-31T11:50:15;38.07;35.32;64.09;;
66399;Laerm;54877;51.504;3.894;2023-10-31T11:52:41;37.50;35.10;57.80;;
66399;Laerm;54877;51.504;3.894;2023-10-31T11:55:12;37.05;35.42;42.73;;
66399;Laerm;54877;51.504;3.894;2023-10-31T11:57:40;38.16;35.25;54.48;;
66399;Laerm;54877;51.504;3.894;2023-10-31T12:00:06;42.33;35.40;58.73;;
66399;Laerm;54877;51.504;3.894;2023-10-31T12:02:35;45.04;35.75;63.66;;
66399;Laerm;54877;51.504;3.894;2023-10-31T12:05:08;44.63;35.70;63.58;;
66399;Laerm;54877;51.504;3.894;2023-10-31T12:07:46;41.86;35.72;59.76;;
66399;Laerm;54877;51.504;3.894;2023-10-31T12:10:11;43.25;35.75;58.83;;
66399;Laerm;54877;51.504;3.894;2023-10-31T12:12:37;43.51;35.80;60.88;;
66399;Laerm;54877;51.504;3.894;2023-10-31T12:15:09;37.28;35.56;43.83;;
66399;Laerm;54877;51.504;3.894;2023-10-31T12:17:35;37.90;35.51;51.62;;
66399;Laerm;54877;51.504;3.894;2023-10-31T12:20:08;43.66;35.49;56.25;;
66399;Laerm;54877;51.504;3.894;2023-10-31T12:22:34;46.91;35.52;66.28;;
66399;Laerm;54877;51.504;3.894;2023-10-31T12:25:04;37.91;35.75;46.20;;
66399;Laerm;54877;51.504;3.894;2023-10-31T12:27:49;46.20;35.70;67.27;;
66399;Laerm;54877;51.504;3.894;2023-10-31T12:30:19;46.95;36.05;61.51;;
66399;Laerm;54877;51.504;3.894;2023-10-31T12:32:45;41.28;38.00;56.94;;
66399;Laerm;54877;51.504;3.894;2023-10-31T12:35:20;47.88;38.02;61.22;;
66399;Laerm;54877;51.504;3.894;2023-10-31T12:37:48;39.76;36.26;52.31;;
66399;Laerm;54877;51.504;3.894;2023-10-31T12:40:16;44.56;35.60;62.72;;
66399;Laerm;54877;51.504;3.894;2023-10-31T12:42:43;43.28;35.93;57.00;;
66399;Laerm;54877;51.504;3.894;2023-10-31T12:45:10;42.70;36.35;64.62;;
66399;Laerm;54877;51.504;3.894;2023-10-31T12:47:36;45.66;36.86;65.22;;
66399;Laerm;54877;51.504;3.894;2023-10-31T12:50:13;45.08;36.07;59.94;;
66399;Laerm;54877;51.504;3.894;2023-10-31T12:52:49;48.09;36.30;63.25;;
66399;Laerm;54877;51.504;3.894;2023-10-31T12:55:15;50.20;36.46;63.42;;
66399;Laerm;54877;51.504;3.894;2023-10-31T12:57:42;48.92;36.58;63.74;;
66399;Laerm;54877;51.504;3.894;2023-10-31T13:00:09;49.30;36.30;63.34;;
66399;Laerm;54877;51.504;3.894;2023-10-31T13:02:38;44.32;36.24;62.24;;
66399;Laerm;54877;51.504;3.894;2023-10-31T13:05:14;43.92;36.03;61.37;;
66399;Laerm;54877;51.504;3.894;2023-10-31T13:07:51;38.28;35.83;50.70;;
66399;Laerm;54877;51.504;3.894;2023-10-31T13:10:20;45.94;36.04;63.25;;
66399;Laerm;54877;51.504;3.894;2023-10-31T13:12:46;49.09;36.08;64.29;;
66399;Laerm;54877;51.504;3.894;2023-10-31T13:15:22;42.47;36.29;60.46;;
66399;Laerm;54877;51.504;3.894;2023-10-31T13:17:48;46.35;36.14;63.77;;
66399;Laerm;54877;51.504;3.894;2023-10-31T13:20:17;47.14;36.34;66.16;;
66399;Laerm;54877;51.504;3.894;2023-10-31T13:22:43;52.29;36.36;73.92;;
66399;Laerm;54877;51.504;3.894;2023-10-31T13:25:10;38.17;36.00;49.42;;
66399;Laerm;54877;51.504;3.894;2023-10-31T13:27:37;41.97;36.11;57.20;;
66399;Laerm;54877;51.504;3.894;2023-10-31T13:30:03;47.24;36.25;63.00;;
66399;Laerm;54877;51.504;3.894;2023-10-31T13:32:29;41.08;36.08;58.73;;
66399;Laerm;54877;51.504;3.894;2023-10-31T13:34:54;37.73;36.01;46.88;;
66399;Laerm;54877;51.504;3.894;2023-10-31T13:37:19;42.56;35.61;57.03;;
66399;Laerm;54877;51.504;3.894;2023-10-31T13:39:45;37.94;35.79;50.94;;
66399;Laerm;54877;51.504;3.894;2023-10-31T13:42:11;45.15;36.04;61.60;;
66399;Laerm;54877;51.504;3.894;2023-10-31T13:44:36;39.99;35.78;58.86;;